Archival Weather

Chicago O'Hare International

Chicago, Illinois (KORD)

Report from: Wednesday, February 1, 2023 3:51 AM CST
Current time: Saturday, July 13, 2024 8:34 PM CDT

Current weather – Weather history – Daily summaries
Weather forecast

Temperature-14.4°C (6.1°F)
Wind chill-21.5°C (-6.8°F)
Dew point-19.4°C (-2.9°F)
Winds 7 kts (3.6 m/s, 8.1 mph) Southwest (230°)
Visibility10 mi. (16.1 km)
Clouds Sky clear
Altimeter30.33 in.Hg (1027 mB)
Relative humidity66 %
Density altitude-4,213 ft. (-1,284 m)
Sea-level pressure102.9 kPa (1029 mB, 30.37 in.Hg)
Remarks Automated weather observing station with precipitation discriminator
Flight conditions Visual Meteorological Conditions
Raw dataKORD 010951Z 23007KT 10SM CLR M14/M19 A3033 RMK AO2 SLP285 T11441194
An error has occurred. This application may no longer respond until reloaded. Reload 🗙